Time;durP1;ratioP1;P1;durP2;ratioP2;P2;SDS_P1;SDS_P2;PMS_P1;PMS_P2;Temp;Humidity;BMP_temperature;BMP_pressure;BME280_temperature;BME280_humidity;BME280_pressure;Samples;Min_cycle;Max_cycle;Signal;HPM_P1;HPM_P2
2022/07/18 00:01:24;;;;;;;;;12.00;11.67;;;;;25.19;29.32;101846.22;5071262;28;45421;-79
2022/07/18 00:03:49;;;;;;;;;17.00;13.67;;;;;24.98;29.52;101828.53;5091409;27;45450;-79
2022/07/18 00:06:15;;;;;;;;;16.33;13.33;;;;;25.06;29.75;101828.38;5091342;27;45337;-79
2022/07/18 00:08:40;;;;;;;;;10.00;10.00;;;;;25.14;29.78;101849.00;5087398;27;45416;-79
2022/07/18 00:11:05;;;;;;;;;14.67;12.00;;;;;25.09;29.48;101850.84;5086326;27;45214;-79
2022/07/18 00:13:31;;;;;;;;;11.67;6.33;;;;;24.95;29.49;101842.13;5082285;27;45148;-79
2022/07/18 00:15:56;;;;;;;;;12.00;12.00;;;;;24.84;29.95;101823.38;5084817;27;45501;-78
2022/07/18 00:18:21;;;;;;;;;11.67;11.33;;;;;24.87;29.86;101834.16;5084272;27;45247;-79
2022/07/18 00:20:46;;;;;;;;;11.00;10.00;;;;;24.80;29.76;101827.06;5084554;27;45537;-78
2022/07/18 00:23:12;;;;;;;;;10.33;10.33;;;;;24.78;30.18;101826.19;5083408;27;45205;-78
2022/07/18 00:25:37;;;;;;;;;12.67;12.00;;;;;24.86;30.24;101840.47;5084008;27;45349;-79
2022/07/18 00:28:03;;;;;;;;;12.33;10.67;;;;;24.82;30.29;101840.59;5077546;27;47821;-78
2022/07/18 00:30:28;;;;;;;;;12.33;10.67;;;;;24.74;30.07;101841.59;5083754;27;45162;-79
2022/07/18 00:32:53;;;;;;;;;11.00;10.67;;;;;24.70;30.02;101839.88;5070852;27;45797;-79
2022/07/18 00:35:19;;;;;;;;;12.00;12.00;;;;;24.62;30.20;101828.31;5086096;27;45589;-79
2022/07/18 00:37:44;;;;;;;;;13.00;12.00;;;;;24.59;30.65;101824.75;5081671;27;45441;-79
2022/07/18 00:40:09;;;;;;;;;16.00;11.00;;;;;24.59;30.36;101832.84;5081707;27;45266;-78
2022/07/18 00:42:35;;;;;;;;;14.67;11.33;;;;;24.56;30.45;101832.00;5090531;27;45455;-78
2022/07/18 00:45:00;;;;;;;;;12.33;12.33;;;;;24.54;30.22;101827.56;5081474;27;45997;-79
2022/07/18 00:47:26;;;;;;;;;10.33;8.67;;;;;24.51;30.48;101843.81;5083589;27;45413;-79
2022/07/18 00:49:51;;;;;;;;;13.00;12.00;;;;;24.46;30.75;101837.59;5081096;27;45315;-79
2022/07/18 00:52:17;;;;;;;;;13.33;10.67;;;;;24.41;30.62;101837.63;5084075;27;45575;-79
2022/07/18 00:54:42;;;;;;;;;15.00;14.00;;;;;24.33;30.92;101832.34;5081032;27;46002;-79
2022/07/18 00:57:08;;;;;;;;;14.67;13.33;;;;;24.21;30.73;101805.53;5083594;27;45572;-79
2022/07/18 01:02:17;;;;;;;;;19.67;17.00;;;;;24.11;31.02;101788.59;5082377;27;45368;-80
2022/07/18 01:04:42;;;;;;;;;21.33;18.00;;;;;24.30;31.15;101820.69;5080589;27;45370;-80
2022/07/18 01:07:09;;;;;;;;;18.00;18.00;;;;;24.03;31.18;101786.91;5084156;27;45337;-80
2022/07/18 01:09:34;;;;;;;;;20.33;18.67;;;;;24.23;31.02;101827.13;5079683;27;45383;-80
2022/07/18 01:12:01;;;;;;;;;18.33;16.33;;;;;24.18;31.07;101824.50;5070138;28;46351;-80
2022/07/18 01:14:27;;;;;;;;;21.67;18.33;;;;;24.15;31.37;101816.44;5080486;27;45376;-79
2022/07/18 01:16:52;;;;;;;;;23.00;18.67;;;;;24.03;31.23;101795.94;5083435;27;45283;-80
2022/07/18 01:19:17;;;;;;;;;17.67;15.00;;;;;24.13;31.30;101824.56;5080584;27;45353;-79
2022/07/18 01:21:43;;;;;;;;;17.67;16.67;;;;;24.01;31.31;101811.25;5084270;27;45323;-79
2022/07/18 01:24:08;;;;;;;;;19.00;16.67;;;;;24.02;31.80;101814.84;5080046;27;45158;-79
2022/07/18 01:26:34;;;;;;;;;16.67;16.00;;;;;24.05;32.00;101831.00;5084109;27;45419;-80
2022/07/18 01:29:00;;;;;;;;;18.33;16.67;;;;;24.08;31.90;101836.34;5080519;27;45410;-79
2022/07/18 01:31:25;;;;;;;;;17.00;14.67;;;;;24.06;31.75;101832.81;5079714;27;45399;-80
2022/07/18 01:33:54;;;;;;;;;18.67;15.67;;;;;23.98;31.79;101829.31;5082306;27;46294;-79
2022/07/18 01:36:19;;;;;;;;;17.33;12.67;;;;;23.94;31.82;101825.75;5084647;27;47546;-80
2022/07/18 01:38:45;;;;;;;;;17.00;15.00;;;;;23.81;31.98;101799.88;5079962;27;45343;-79
2022/07/18 01:41:10;;;;;;;;;19.00;16.67;;;;;23.84;32.21;101805.22;5084889;27;45626;-79
2022/07/18 01:43:40;;;;;;;;;12.33;12.33;;;;;23.86;31.67;101809.69;5085381;27;45453;-79
2022/07/18 01:46:05;;;;;;;;;15.67;14.00;;;;;23.79;31.76;101797.19;5090502;27;45456;-80
2022/07/18 01:48:31;;;;;;;;;13.33;13.33;;;;;23.86;32.20;101816.88;5080753;27;45337;-79
2022/07/18 01:50:56;;;;;;;;;19.33;16.33;;;;;23.83;32.22;101815.09;5082605;27;45375;-80
2022/07/18 01:53:24;;;;;;;;;19.00;13.33;;;;;23.69;31.91;101792.78;5072774;27;46737;-79
2022/07/18 01:55:49;;;;;;;;;13.33;13.33;;;;;23.68;32.04;101789.19;5086293;27;45421;-80
2022/07/18 01:58:14;;;;;;;;;13.67;13.67;;;;;23.70;32.19;101791.00;5079960;28;45294;-80
2022/07/18 02:00:40;;;;;;;;;15.67;15.67;;;;;23.76;32.17;101799.91;5082476;27;45356;-80
2022/07/18 02:03:05;;;;;;;;;14.33;13.67;;;;;23.64;32.36;101773.97;5084569;27;45515;-79
2022/07/18 02:05:31;;;;;;;;;10.00;6.33;;;;;23.67;32.22;101782.03;5082748;27;45412;-80
2022/07/18 02:07:56;;;;;;;;;15.33;14.33;;;;;23.48;32.43;101758.00;5085148;27;45493;-80
2022/07/18 02:10:21;;;;;;;;;13.00;13.00;;;;;23.56;32.50;101775.00;5074761;27;45423;-80
2022/07/18 02:12:47;;;;;;;;;12.00;11.00;;;;;23.62;32.82;101788.41;5079337;27;46239;-80
2022/07/18 02:15:14;;;;;;;;;11.67;11.67;;;;;23.54;33.04;101796.59;5081035;27;45435;-79
2022/07/18 02:17:40;;;;;;;;;16.00;14.33;;;;;23.55;32.86;101811.84;5083717;27;45423;-78
2022/07/18 02:20:08;;;;;;;;;11.33;9.33;;;;;23.45;33.11;101800.31;5065028;27;46033;-79
2022/07/18 02:22:33;;;;;;;;;15.33;13.67;;;;;23.40;33.13;101785.09;5088917;27;45543;-78
2022/07/18 02:24:58;;;;;;;;;10.33;10.33;;;;;23.36;33.25;101780.66;5079463;27;45300;-78
2022/07/18 02:27:24;;;;;;;;;15.00;15.00;;;;;23.37;33.27;101782.44;5082232;27;45417;-79
2022/07/18 02:29:50;;;;;;;;;15.00;13.67;;;;;23.45;33.16;101804.81;5079443;27;45409;-79
2022/07/18 02:32:16;;;;;;;;;14.67;13.67;;;;;23.42;33.24;101807.56;5084905;27;45528;-79
2022/07/18 02:34:41;;;;;;;;;14.67;11.00;;;;;23.29;33.52;101785.22;5089022;27;45382;-79
2022/07/18 02:37:07;;;;;;;;;17.00;15.00;;;;;23.34;33.17;101807.66;5075950;27;45464;-81
2022/07/18 02:39:33;;;;;;;;;13.00;12.00;;;;;23.18;32.18;101784.47;5087166;27;46444;-79
2022/07/18 02:41:59;;;;;;;;;22.67;18.33;;;;;23.18;33.17;101781.78;5083540;27;46146;-80
2022/07/18 02:44:25;;;;;;;;;21.67;21.67;;;;;23.13;33.40;101773.72;5079390;27;45373;-78
2022/07/18 02:46:50;;;;;;;;;26.00;19.00;;;;;23.24;33.61;101796.06;5082095;27;45421;-78
2022/07/18 02:49:38;;;;;;;;;17.33;16.67;;;;;23.26;32.51;101800.56;5080178;27;45233;-78
2022/07/18 02:52:05;;;;;;;;;20.00;17.00;;;;;23.16;33.60;101786.28;5081553;27;45341;-78
2022/07/18 02:54:32;;;;;;;;;22.67;20.67;;;;;23.24;32.12;101814.94;5078800;27;45323;-78
2022/07/18 02:56:57;;;;;;;;;20.33;18.67;;;;;23.16;33.13;101803.38;5082620;27;45198;-78
2022/07/18 02:59:25;;;;;;;;;21.33;18.00;;;;;23.21;32.92;101817.69;5078696;27;45655;-78
2022/07/18 03:01:50;;;;;;;;;23.33;19.33;;;;;23.11;33.59;101804.34;5071045;28;46864;-78
2022/07/18 03:04:17;;;;;;;;;25.67;21.00;;;;;23.15;32.83;101814.19;5078739;27;45473;-78
2022/07/18 03:06:42;;;;;;;;;24.33;22.00;;;;;23.14;33.30;101816.00;5071950;27;45363;-79
2022/07/18 03:09:08;;;;;;;;;23.67;21.00;;;;;23.09;33.77;101811.56;5083395;27;45315;-78
2022/07/18 03:11:33;;;;;;;;;23.33;19.67;;;;;23.04;34.93;101811.59;5081134;27;45434;-77
2022/07/18 03:13:59;;;;;;;;;24.00;20.33;;;;;23.05;34.17;101813.41;5089250;27;45502;-78
2022/07/18 03:16:24;;;;;;;;;21.67;18.33;;;;;22.96;34.01;101787.41;5086702;27;47124;-78
2022/07/18 03:18:50;;;;;;;;;27.00;22.00;;;;;22.90;33.74;101775.78;5068297;27;45333;-78
2022/07/18 03:21:15;;;;;;;;;22.00;21.00;;;;;23.03;33.87;101798.16;5090631;27;46743;-78
2022/07/18 03:23:40;;;;;;;;;23.33;20.67;;;;;23.04;34.10;101800.81;5088592;27;45283;-78
2022/07/18 03:26:06;;;;;;;;;22.00;21.33;;;;;22.97;34.16;101794.59;5085196;27;45398;-78
2022/07/18 03:28:31;;;;;;;;;19.00;16.33;;;;;22.89;34.40;101782.97;5082179;27;45291;-78
2022/07/18 03:30:58;;;;;;;;;20.00;18.67;;;;;22.91;34.47;101791.94;5087077;27;46272;-79
2022/07/18 03:33:27;;;;;;;;;19.33;19.33;;;;;22.92;34.62;101782.94;5081813;27;45470;-79
2022/07/18 03:35:52;;;;;;;;;17.00;16.00;;;;;22.93;34.16;101784.72;5089528;27;45383;-78
2022/07/18 03:38:18;;;;;;;;;18.00;15.33;;;;;22.91;34.44;101778.47;5081683;27;45359;-78
2022/07/18 03:40:43;;;;;;;;;17.33;17.33;;;;;22.87;35.02;101786.59;5084256;27;46108;-78
2022/07/18 03:43:09;;;;;;;;;18.00;16.33;;;;;22.84;34.23;101781.22;5076385;27;45387;-78
2022/07/18 03:45:34;;;;;;;;;21.00;18.00;;;;;22.82;34.66;101781.25;5085559;27;45650;-79
2022/07/18 03:48:00;;;;;;;;;20.00;19.00;;;;;22.84;34.63;101784.81;5089197;27;45959;-78
2022/07/18 03:50:27;;;;;;;;;18.00;16.67;;;;;22.69;35.05;101763.44;5082559;27;46280;-79
2022/07/18 03:52:52;;;;;;;;;17.00;15.00;;;;;22.67;34.50;101767.94;5070805;27;45390;-79
2022/07/18 03:55:18;;;;;;;;;19.33;17.67;;;;;22.79;34.91;101795.63;5089214;27;45382;-80
2022/07/18 03:57:43;;;;;;;;;14.00;12.67;;;;;22.73;33.39;101795.72;5089687;27;45252;-79
2022/07/18 04:00:09;;;;;;;;;17.00;16.00;;;;;22.56;34.48;101766.22;5082224;27;45537;-78
2022/07/18 04:02:42;;;;;;;;;20.33;12.67;;;;;22.72;34.48;101801.13;5089086;27;45381;-78
2022/07/18 04:05:08;;;;;;;;;16.00;14.67;;;;;22.64;34.99;101797.63;5084632;27;45237;-79
2022/07/18 04:07:34;;;;;;;;;18.33;15.67;;;;;22.61;34.63;101789.56;5081908;27;45432;-79
2022/07/18 04:09:59;;;;;;;;;17.33;14.67;;;;;22.64;34.93;101795.81;5067931;27;46500;-79
2022/07/18 04:12:24;;;;;;;;;11.00;9.00;;;;;22.55;35.32;101787.81;5083689;27;45452;-78
2022/07/18 04:14:50;;;;;;;;;18.00;16.00;;;;;22.60;34.39;101802.13;5096041;27;45394;-78
2022/07/18 04:17:15;;;;;;;;;19.00;16.67;;;;;22.58;34.99;101787.78;5085208;27;45565;-80
2022/07/18 04:19:40;;;;;;;;;16.67;16.67;;;;;22.46;35.26;101778.03;5081340;27;45337;-82
2022/07/18 04:22:06;;;;;;;;;16.67;15.33;;;;;22.59;35.25;101803.03;5074911;27;45934;-81
2022/07/18 04:24:31;;;;;;;;;19.67;16.67;;;;;22.58;35.13;101798.56;5083167;27;45612;-79
2022/07/18 04:26:57;;;;;;;;;20.00;17.33;;;;;22.48;34.57;101767.22;5084745;27;45674;-80
2022/07/18 04:29:22;;;;;;;;;20.00;17.00;;;;;22.57;34.53;101777.91;5081191;27;45485;-79
2022/07/18 04:31:47;;;;;;;;;16.33;14.33;;;;;22.53;35.02;101778.84;5082961;27;45481;-79
2022/07/18 04:34:13;;;;;;;;;19.67;17.67;;;;;22.40;34.98;101753.81;5086014;27;45423;-79
2022/07/18 04:36:38;;;;;;;;;19.67;16.33;;;;;22.48;34.32;101768.09;5075612;27;45736;-80
2022/07/18 04:39:03;;;;;;;;;17.00;15.33;;;;;22.38;34.82;101741.25;5083997;27;46135;-79
2022/07/18 04:41:29;;;;;;;;;15.33;15.33;;;;;22.55;35.01;101767.16;5083312;27;45457;-81
2022/07/18 04:43:55;;;;;;;;;19.67;17.67;;;;;22.44;35.00;101743.94;5048487;28;45413;-82
2022/07/18 04:46:20;;;;;;;;;15.33;14.33;;;;;22.54;35.19;101765.34;5085972;27;45388;-82
2022/07/18 04:48:46;;;;;;;;;16.33;14.00;;;;;22.59;35.29;101770.69;5086477;27;45354;-81
2022/07/18 04:51:11;;;;;;;;;14.33;13.00;;;;;22.56;35.52;101749.19;5070113;27;45387;-81
2022/07/18 04:53:37;;;;;;;;;17.67;14.33;;;;;22.46;35.51;101717.84;5087630;27;45414;-82
2022/07/18 04:56:02;;;;;;;;;17.67;17.00;;;;;22.56;34.65;101735.69;5070103;27;46210;-80
2022/07/18 04:58:28;;;;;;;;;17.33;16.00;;;;;22.61;35.54;101744.63;5080814;27;45316;-82
2022/07/18 05:00:53;;;;;;;;;17.33;15.33;;;;;22.53;35.65;101728.53;5082061;27;44709;-82
2022/07/18 05:03:18;;;;;;;;;16.00;15.33;;;;;22.66;35.49;101747.25;5080650;27;45407;-81
2022/07/18 05:05:44;;;;;;;;;21.33;19.00;;;;;22.69;35.58;101736.47;5086065;27;45398;-81
2022/07/18 05:08:11;;;;;;;;;16.67;16.00;;;;;22.71;36.00;101740.94;5081078;27;45387;-79
2022/07/18 05:10:37;;;;;;;;;16.00;16.00;;;;;22.72;36.11;101718.47;5076079;27;46616;-79
2022/07/18 05:13:02;;;;;;;;;17.00;14.00;;;;;22.73;35.58;101706.75;5080919;27;45327;-78
2022/07/18 05:15:28;;;;;;;;;12.33;12.33;;;;;22.68;36.24;101700.53;5084586;27;45545;-80
2022/07/18 05:17:54;;;;;;;;;18.00;14.33;;;;;22.74;35.69;101708.56;5084087;27;45365;-80
2022/07/18 05:20:21;;;;;;;;;16.00;15.00;;;;;22.74;36.43;101703.19;5082132;27;45327;-79
2022/07/18 05:22:47;;;;;;;;;16.00;13.00;;;;;22.74;36.22;101704.94;5083387;27;45302;-81
2022/07/18 05:25:12;;;;;;;;;16.00;15.33;;;;;22.73;36.54;101713.97;5080901;27;45439;-81
2022/07/18 05:27:39;;;;;;;;;18.67;15.33;;;;;22.76;37.04;101739.06;5088784;27;45895;-81
2022/07/18 05:30:06;;;;;;;;;14.33;12.33;;;;;22.78;34.91;101745.34;5095261;27;45583;-81
2022/07/18 05:32:31;;;;;;;;;16.33;15.33;;;;;22.69;35.71;101733.78;5083813;27;45467;-81
2022/07/18 05:34:57;;;;;;;;;19.00;15.00;;;;;22.91;35.56;101750.59;5089483;27;45447;-82
2022/07/18 05:37:23;;;;;;;;;15.67;15.33;;;;;22.84;35.47;101738.09;5083296;27;45430;-80
2022/07/18 05:39:51;;;;;;;;;16.00;14.67;;;;;22.99;35.60;101755.03;5078813;27;45409;-81
2022/07/18 05:42:16;;;;;;;;;17.00;13.33;;;;;23.12;35.37;101762.97;5083054;27;45375;-79
2022/07/18 05:44:42;;;;;;;;;20.00;17.00;;;;;23.11;35.15;101754.00;5074681;27;45989;-79
2022/07/18 05:47:07;;;;;;;;;22.00;14.67;;;;;23.21;35.26;101763.72;5082476;27;45970;-80
2022/07/18 05:49:32;;;;;;;;;19.33;15.33;;;;;23.26;35.54;101774.47;5068877;27;45364;-79
2022/07/18 05:51:58;;;;;;;;;16.00;13.33;;;;;23.28;34.80;101772.66;5086175;27;45339;-81
2022/07/18 05:54:23;;;;;;;;;14.33;11.33;;;;;23.34;34.99;101779.78;5080035;27;45276;-80
2022/07/18 05:56:52;;;;;;;;;15.67;12.00;;;;;23.39;34.45;101776.09;5085279;27;46219;-79
2022/07/18 05:59:19;;;;;;;;;10.67;10.67;;;;;23.39;34.31;101759.03;5079716;27;45336;-78
2022/07/18 06:01:44;;;;;;;;;15.67;12.33;;;;;23.37;34.70;101756.34;5091359;27;45349;-79
2022/07/18 06:04:10;;;;;;;;;14.33;12.00;;;;;23.45;34.05;101750.84;5078445;27;47126;-79
2022/07/18 06:06:35;;;;;;;;;12.00;10.67;;;;;23.49;34.70;101747.19;5083843;27;45377;-80
2022/07/18 06:09:01;;;;;;;;;9.00;9.00;;;;;23.56;34.52;101750.69;5079342;27;45256;-78
2022/07/18 06:11:26;;;;;;;;;14.33;11.33;;;;;23.52;34.35;101739.03;5084594;27;45450;-77
2022/07/18 06:13:52;;;;;;;;;10.33;10.33;;;;;23.60;34.66;101745.22;5070190;27;47247;-78
2022/07/18 06:16:17;;;;;;;;;12.67;9.00;;;;;23.73;34.67;101764.88;5083307;27;45265;-78
2022/07/18 06:18:42;;;;;;;;;12.00;8.67;;;;;23.79;34.23;101756.66;5082521;27;45326;-78
2022/07/18 06:21:08;;;;;;;;;12.33;11.00;;;;;23.84;33.68;101745.81;5083037;27;45382;-79
2022/07/18 06:23:35;;;;;;;;;10.67;9.00;;;;;23.87;34.15;101743.06;5079142;27;45250;-78
2022/07/18 06:26:01;;;;;;;;;14.33;12.00;;;;;23.87;34.22;101726.84;5046414;28;46781;-79
2022/07/18 06:28:28;;;;;;;;;9.67;9.67;;;;;24.11;34.25;101749.84;5087790;27;45357;-79
2022/07/18 06:30:54;;;;;;;;;8.33;8.00;;;;;24.26;33.92;101759.53;5084835;27;45528;-77
2022/07/18 06:33:19;;;;;;;;;9.00;9.00;;;;;24.45;33.92;101758.31;5080901;27;45654;-79
2022/07/18 06:35:46;;;;;;;;;13.00;10.67;;;;;24.50;33.74;101739.31;5091707;27;46038;-75
2022/07/18 06:38:12;;;;;;;;;9.67;8.67;;;;;24.76;33.24;101749.66;5087993;27;45351;-75
2022/07/18 06:40:37;;;;;;;;;11.33;9.00;;;;;25.10;32.92;101768.78;5082018;27;45220;-75
2022/07/18 06:43:02;;;;;;;;;12.33;10.67;;;;;25.28;32.32;101750.41;5070655;27;45541;-72
2022/07/18 06:45:28;;;;;;;;;11.00;9.67;;;;;25.57;32.51;101750.66;5074694;27;48009;-73
2022/07/18 06:47:53;;;;;;;;;11.33;11.33;;;;;25.75;32.08;101749.34;5067456;27;45363;-73
2022/07/18 06:50:18;;;;;;;;;11.33;10.67;;;;;25.93;31.53;101734.47;5081448;27;45241;-73
2022/07/18 06:52:44;;;;;;;;;10.67;9.33;;;;;26.25;31.29;101752.66;5085895;27;45145;-73
2022/07/18 06:55:11;;;;;;;;;12.00;11.33;;;;;26.25;30.85;101725.53;5080483;27;46217;-72
2022/07/18 06:57:38;;;;;;;;;12.67;10.67;;;;;26.65;31.03;101767.88;5090673;27;45323;-72
2022/07/18 07:00:05;;;;;;;;;10.33;9.00;;;;;26.89;30.82;101777.19;5082731;27;45353;-72
2022/07/18 07:02:30;;;;;;;;;12.00;9.00;;;;;27.15;30.46;101775.53;5091345;27;45415;-72
2022/07/18 07:04:55;;;;;;;;;15.67;13.67;;;;;27.41;30.11;101778.38;5081858;27;45466;-71
2022/07/18 07:07:21;;;;;;;;;15.00;10.33;;;;;27.61;29.49;101766.00;5069916;27;45463;-72
2022/07/18 07:09:46;;;;;;;;;11.00;10.00;;;;;27.85;29.62;101765.28;5090533;27;45438;-72
2022/07/18 07:12:11;;;;;;;;;15.67;9.00;;;;;28.01;28.70;101745.75;5088183;27;45370;-72
2022/07/18 07:14:37;;;;;;;;;11.00;11.00;;;;;28.26;28.82;101764.81;5081922;27;46183;-72
2022/07/18 07:17:03;;;;;;;;;13.00;8.50;;;;;28.34;29.18;101750.06;5079856;27;45467;-72
2022/07/18 07:19:28;;;;;;;;;9.75;8.25;;;;;28.60;28.55;101747.38;5090721;27;45484;-72
2022/07/18 07:21:54;;;;;;;;;8.50;7.75;;;;;28.91;27.58;101761.66;5076547;27;45940;-71
2022/07/18 07:24:19;;;;;;;;;11.50;8.75;;;;;29.08;27.82;101752.00;5081026;27;47145;-71
2022/07/18 07:26:45;;;;;;;;;9.00;8.00;;;;;29.31;27.68;101762.00;5084932;27;45569;-72
2022/07/18 07:29:10;;;;;;;;;9.00;9.00;;;;;29.30;27.43;101742.06;5076591;28;45462;-72
2022/07/18 07:31:35;;;;;;;;;9.00;9.00;;;;;29.47;27.53;101716.00;5090900;27;45475;-71
2022/07/18 07:34:01;;;;;;;;;9.25;8.75;;;;;29.89;26.50;101756.97;5089681;27;45493;-71
2022/07/18 07:36:26;;;;;;;;;11.25;7.25;;;;;30.13;26.66;101740.53;5084862;27;45407;-71
2022/07/18 07:38:52;;;;;;;;;8.50;8.50;;;;;30.25;25.97;101710.94;5084499;27;45363;-72
2022/07/18 07:41:17;;;;;;;;;15.75;11.75;;;;;30.80;25.04;101750.41;5084139;27;45308;-72
2022/07/18 07:43:42;;;;;;;;;9.50;9.50;;;;;31.02;26.13;101733.91;5083527;27;45957;-71
2022/07/18 07:46:10;;;;;;;;;9.50;8.75;;;;;30.93;24.72;101710.66;5084410;27;45486;-71
2022/07/18 07:48:36;;;;;;;;;9.75;7.75;;;;;31.29;24.97;101732.63;5082550;27;45359;-72
2022/07/18 07:51:03;;;;;;;;;11.00;7.50;;;;;31.31;24.70;101711.56;5088206;27;45275;-71
2022/07/18 07:53:28;;;;;;;;;8.50;8.00;;;;;31.64;24.75;101725.47;5088333;27;45485;-72
2022/07/18 07:55:54;;;;;;;;;9.50;9.25;;;;;31.78;25.10;101718.41;5086366;27;45274;-71
2022/07/18 07:58:19;;;;;;;;;12.00;10.25;;;;;31.83;23.35;101695.34;5081859;27;45436;-71
2022/07/18 08:00:44;;;;;;;;;11.00;10.00;;;;;32.18;24.12;101721.88;5072358;27;45678;-71
2022/07/18 08:03:10;;;;;;;;;11.50;9.25;;;;;32.24;23.58;101699.72;5091821;27;46198;-71
2022/07/18 08:05:38;;;;;;;;;14.75;9.75;;;;;32.62;22.68;101727.78;5083588;27;45514;-71
2022/07/18 08:08:04;;;;;;;;;10.50;8.50;;;;;32.79;23.18;101724.13;5083646;27;45358;-71
2022/07/18 08:10:32;;;;;;;;;11.50;8.00;;;;;33.02;23.30;101720.16;5083914;27;45319;-71
2022/07/18 08:12:57;;;;;;;;;9.00;8.50;;;;;33.08;23.11;101705.25;5086213;27;45242;-71
2022/07/18 08:15:24;;;;;;;;;7.00;7.00;;;;;33.35;22.98;101711.03;5083173;27;45209;-71
2022/07/18 08:17:50;;;;;;;;;11.50;8.00;;;;;33.31;22.39;101693.00;5085390;27;45328;-71
2022/07/18 08:20:18;;;;;;;;;8.25;7.50;;;;;33.59;22.02;101711.53;5082168;27;45224;-71
2022/07/18 08:23:04;;;;;;;;;10.00;8.80;;;;;33.87;23.35;101714.41;5084745;27;45432;-72
2022/07/18 08:25:31;;;;;;;;;7.80;7.80;;;;;34.16;21.94;101720.03;5081294;27;45455;-71
2022/07/18 08:27:58;;;;;;;;;8.00;7.40;;;;;34.29;21.82;101701.84;5085277;27;45303;-75
2022/07/18 08:30:23;;;;;;;;;6.40;6.40;;;;;34.45;21.80;101710.03;5080495;27;45388;-76
2022/07/18 08:32:49;;;;;;;;;8.50;8.50;;;;;34.72;21.31;101718.44;5091803;27;46436;-75
2022/07/18 08:35:14;;;;;;;;;8.00;6.50;;;;;34.89;20.72;101719.22;5086366;27;45308;-77
2022/07/18 08:37:40;;;;;;;;;15.25;11.25;;;;;35.18;22.48;101726.53;5081540;27;45415;-77
2022/07/18 08:40:06;;;;;;;;;9.00;6.75;;;;;35.46;19.75;101715.56;5081707;27;45423;-77
2022/07/18 08:42:34;;;;;;;;;8.40;4.80;;;;;35.70;20.97;101705.72;5084377;27;45523;-73
2022/07/18 08:45:00;;;;;;;;;9.20;6.40;;;;;35.99;20.44;101711.09;5070427;27;45278;-73
2022/07/18 08:47:27;;;;;;;;;9.60;7.60;;;;;36.31;19.22;101722.69;5085311;27;45454;-73
2022/07/18 08:49:53;;;;;;;;;11.00;9.60;;;;;36.43;18.28;101719.06;5080916;27;45279;-73
2022/07/18 08:52:19;;;;;;;;;10.25;9.50;;;;;36.58;20.15;101717.16;5085625;27;45284;-72
2022/07/18 08:54:46;;;;;;;;;14.60;13.80;;;;;36.77;18.56;101713.94;5080379;27;45429;-73
2022/07/18 08:57:12;;;;;;;;;16.00;14.40;;;;;37.03;18.74;101708.44;5085385;27;47614;-72
2022/07/18 08:59:37;;;;;;;;;14.75;11.50;;;;;37.24;17.36;101695.84;5080553;27;45242;-73
2022/07/18 09:02:02;;;;;;;;;12.00;9.00;;;;;37.41;17.92;101712.00;5085209;27;45323;-72
2022/07/18 09:04:35;;;;;;;;;9.75;8.00;;;;;37.66;17.67;101704.66;5087193;27;45397;-73
2022/07/18 09:07:00;;;;;;;;;7.20;7.20;;;;;37.82;16.31;101685.94;5086447;27;45522;-72
2022/07/18 09:09:26;;;;;;;;;9.75;8.00;;;;;38.01;16.63;101709.41;5080365;27;45364;-73
2022/07/18 09:12:05;;;;;;;;;5.75;5.75;;;;;38.18;17.51;101711.72;5093596;27;45532;-72
2022/07/18 09:14:38;;;;;;;;;8.40;6.80;;;;;38.49;16.31;101720.41;5100518;27;45302;-73
2022/07/18 09:17:25;;;;;;;;;8.40;6.80;;;;;38.46;17.63;101715.13;5085607;27;45292;-73
2022/07/18 09:20:16;;;;;;;;;8.80;6.80;;;;;38.59;18.08;101724.16;5091002;27;45667;-73
2022/07/18 09:22:44;;;;;;;;;9.40;8.60;;;;;38.73;16.55;101712.88;5075704;27;47371;-74
2022/07/18 09:25:14;;;;;;;;;7.60;7.00;;;;;39.03;16.95;101722.50;5079964;27;45611;-74
2022/07/18 09:27:40;;;;;;;;;9.80;8.20;;;;;39.21;15.82;101721.97;5084763;27;45460;-74
2022/07/18 09:30:08;;;;;;;;;7.60;7.60;;;;;39.44;16.39;101712.69;5080210;27;45399;-74
2022/07/18 09:32:34;;;;;;;;;7.60;6.20;;;;;39.35;14.78;101724.50;5083738;27;45362;-73
2022/07/18 09:35:16;;;;;;;;;9.60;7.40;;;;;39.48;13.91;101708.66;5085559;27;45557;-72
2022/07/18 09:37:54;;;;;;;;;10.40;7.60;;;;;39.71;16.89;101714.13;5081998;27;45407;-73
2022/07/18 09:40:22;;;;;;;;;10.80;8.40;;;;;39.82;14.43;101716.91;5085485;27;45516;-72
2022/07/18 09:42:52;;;;;;;;;9.00;8.00;;;;;40.00;13.84;101707.03;5080485;27;45269;-73
2022/07/18 09:45:22;;;;;;;;;9.20;7.00;;;;;40.03;15.48;101712.28;5088182;27;45434;-73
2022/07/18 09:48:04;;;;;;;;;6.20;6.20;;;;;40.29;15.64;101722.16;5080972;27;45328;-72
2022/07/18 09:50:43;;;;;;;;;6.40;6.40;;;;;40.55;15.53;101719.84;5080904;27;45321;-72
2022/07/18 09:53:19;;;;;;;;;4.60;4.60;;;;;40.76;15.67;101715.19;5079461;27;45286;-72
2022/07/18 09:55:47;;;;;;;;;5.00;4.00;;;;;40.57;14.88;101715.06;5082221;27;45461;-72
2022/07/18 09:58:17;;;;;;;;;8.80;7.60;;;;;40.63;14.75;101717.31;5080754;27;45371;-73
2022/07/18 10:00:44;;;;;;;;;6.00;6.00;;;;;40.63;14.75;101709.00;5079801;27;45305;-72
2022/07/18 10:03:09;;;;;;;;;8.40;8.20;;;;;40.78;14.30;101709.50;5085395;27;46172;-73
2022/07/18 10:05:38;;;;;;;;;8.00;8.00;;;;;40.91;15.29;101701.84;5079822;27;45316;-73
2022/07/18 10:08:13;;;;;;;;;4.40;4.40;;;;;41.04;14.53;101690.53;5075526;27;45486;-74
2022/07/18 10:10:40;;;;;;;;;7.00;6.00;;;;;41.11;14.52;101697.28;5092571;27;45537;-73
2022/07/18 10:13:07;;;;;;;;;5.40;5.40;;;;;41.22;14.89;101697.19;5086626;27;45300;-73
2022/07/18 10:15:36;;;;;;;;;5.60;4.60;;;;;41.19;14.43;101702.13;5091167;27;45398;-72
2022/07/18 10:18:03;;;;;;;;;6.00;6.00;;;;;41.26;14.48;101694.97;5088121;27;45434;-72
2022/07/18 10:20:43;;;;;;;;;5.80;5.20;;;;;41.19;13.72;101686.38;5094125;27;45602;-73
2022/07/18 10:23:22;;;;;;;;;5.80;5.60;;;;;41.41;14.29;101688.03;5086212;27;45512;-73
2022/07/18 10:26:05;;;;;;;;;5.80;5.80;;;;;41.73;14.81;101696.13;5065235;27;46106;-73
2022/07/18 10:28:31;;;;;;;;;5.60;5.60;;;;;41.97;13.19;101683.78;5087904;27;45336;-74
2022/07/18 10:31:13;;;;;;;;;7.25;7.25;;;;;42.21;14.85;101680.53;5075258;27;45840;-74
2022/07/18 10:33:39;;;;;;;;;7.40;5.80;;;;;42.35;14.59;101676.44;5088224;27;45974;-73
2022/07/18 10:36:06;;;;;;;;;6.20;5.80;;;;;42.25;14.24;101682.00;5085658;27;45442;-73
2022/07/18 10:38:32;;;;;;;;;4.80;4.80;;;;;42.27;14.11;101674.41;5078857;27;45395;-73
2022/07/18 10:41:09;;;;;;;;;5.80;5.60;;;;;42.38;13.59;101679.81;5080679;27;45463;-75
2022/07/18 10:43:40;;;;;;;;;7.40;6.00;;;;;42.59;13.56;101679.59;5079136;27;46276;-75
2022/07/18 10:46:07;;;;;;;;;7.60;6.20;;;;;42.36;13.58;101684.63;5088776;27;45449;-77
2022/07/18 10:48:32;;;;;;;;;6.40;6.40;;;;;42.50;13.87;101677.72;5079279;28;45355;-74
2022/07/18 10:51:08;;;;;;;;;8.00;6.75;;;;;42.36;13.60;101676.31;5080366;27;45332;-75
2022/07/18 10:53:58;;;;;;;;;6.00;5.80;;;;;42.51;13.87;101679.47;5079321;27;45561;-75
2022/07/18 10:56:35;;;;;;;;;6.00;6.00;;;;;42.72;13.36;101678.41;5082443;27;45278;-75
2022/07/18 10:59:21;;;;;;;;;7.80;7.80;;;;;42.77;13.82;101681.63;5095861;27;45267;-75
2022/07/18 11:01:53;;;;;;;;;8.20;6.20;;;;;42.74;12.78;101676.38;5079126;27;45564;-75
2022/07/18 11:04:32;;;;;;;;;5.60;5.60;;;;;42.84;13.88;101678.09;5078557;27;45302;-75
2022/07/18 11:07:15;;;;;;;;;8.20;7.00;;;;;42.97;13.95;101682.41;5077903;27;45344;-75
2022/07/18 11:09:43;;;;;;;;;11.00;10.20;;;;;43.22;13.40;101669.72;5078708;27;45322;-75
2022/07/18 11:12:18;;;;;;;;;8.60;7.00;;;;;43.29;13.71;101663.38;5081030;27;45537;-75
2022/07/18 11:15:04;;;;;;;;;8.20;7.20;;;;;43.42;13.27;101674.16;5078395;27;46332;-75
2022/07/18 11:17:51;;;;;;;;;7.20;7.20;;;;;43.50;12.41;101665.00;5082524;27;45405;-74